createdAt,value
2023-01-08T00:02:18.442Z,2.35
2023-01-08T00:04:45.821Z,2.13
2023-01-08T00:07:12.969Z,2.40
2023-01-08T00:09:40.099Z,2.92
2023-01-08T00:12:07.411Z,2.15
2023-01-08T00:14:34.585Z,2.40
2023-01-08T00:17:02.797Z,2.35
2023-01-08T00:19:31.131Z,1.98
2023-01-08T00:21:58.301Z,2.60
2023-01-08T00:24:25.500Z,2.63
2023-01-08T00:26:52.716Z,2.47
2023-01-08T00:29:19.823Z,2.95
2023-01-08T00:31:46.941Z,2.13
2023-01-08T00:34:14.016Z,2.58
2023-01-08T00:36:41.083Z,2.72
2023-01-08T00:39:08.270Z,2.83
2023-01-08T00:41:35.439Z,2.67
2023-01-08T00:44:02.506Z,2.50
2023-01-08T00:46:29.660Z,2.33
2023-01-08T00:48:56.738Z,4.38
2023-01-08T00:51:23.834Z,2.40
2023-01-08T00:53:51.043Z,2.35
2023-01-08T00:56:18.130Z,2.50
2023-01-08T00:58:45.383Z,2.83
2023-01-08T01:01:14.020Z,2.20
2023-01-08T01:03:41.808Z,2.33
2023-01-08T01:06:09.160Z,2.25
2023-01-08T01:08:36.382Z,2.72
2023-01-08T01:11:10.168Z,2.78
2023-01-08T01:13:37.357Z,2.20
2023-01-08T01:16:04.624Z,2.33
2023-01-08T01:18:31.788Z,2.63
2023-01-08T01:20:59.700Z,2.50
2023-01-08T01:23:27.100Z,2.65
2023-01-08T01:25:54.512Z,2.58
2023-01-08T01:28:21.669Z,2.25
2023-01-08T01:30:54.070Z,2.28
2023-01-08T01:33:21.365Z,2.25
2023-01-08T01:35:48.519Z,2.72
2023-01-08T01:38:15.815Z,3.00
2023-01-08T01:40:43.740Z,2.33
2023-01-08T01:43:14.561Z,2.70
2023-01-08T01:45:42.159Z,2.75
2023-01-08T01:48:13.483Z,2.53
2023-01-08T01:50:42.519Z,2.53
2023-01-08T01:53:13.426Z,1.83
2023-01-08T01:55:43.380Z,2.28
2023-01-08T01:58:30.458Z,2.70
2023-01-08T02:00:59.050Z,2.58
2023-01-08T02:03:27.521Z,2.60
2023-01-08T02:05:55.102Z,2.35
2023-01-08T02:08:28.951Z,2.67
2023-01-08T02:11:02.044Z,2.50
2023-01-08T02:13:35.233Z,2.50
2023-01-08T02:16:07.605Z,2.67
2023-01-08T02:18:46.428Z,2.63
2023-01-08T02:21:15.159Z,2.80
2023-01-08T02:23:48.046Z,2.50
2023-01-08T02:26:28.593Z,2.50
2023-01-08T02:29:00.511Z,2.38
2023-01-08T02:31:28.896Z,2.75
2023-01-08T02:33:56.147Z,2.70
2023-01-08T02:36:23.240Z,2.42
2023-01-08T02:39:08.682Z,2.67
2023-01-08T02:41:50.988Z,2.83
2023-01-08T02:44:20.672Z,2.63
2023-01-08T02:46:50.987Z,2.92
2023-01-08T02:49:19.354Z,2.90
2023-01-08T02:51:50.387Z,2.97
2023-01-08T02:54:20.454Z,2.47
2023-01-08T02:56:49.973Z,2.70
2023-01-08T02:59:17.421Z,2.83
2023-01-08T03:01:45.696Z,2.88
2023-01-08T03:04:20.226Z,3.95
2023-01-08T03:06:47.447Z,2.47
2023-01-08T03:09:15.139Z,2.75
2023-01-08T03:11:47.018Z,2.80
2023-01-08T03:14:14.368Z,2.50
2023-01-08T03:16:49.645Z,3.05
2023-01-08T03:19:26.110Z,2.60
2023-01-08T03:21:57.030Z,2.45
2023-01-08T03:24:28.983Z,2.90
2023-01-08T03:27:00.123Z,3.05
2023-01-08T03:29:28.219Z,2.67
2023-01-08T03:31:58.688Z,2.85
2023-01-08T03:34:26.272Z,2.78
2023-01-08T03:36:56.374Z,2.60
2023-01-08T03:39:38.365Z,2.65
2023-01-08T03:42:08.008Z,2.33
2023-01-08T03:44:35.160Z,2.42
2023-01-08T03:47:03.115Z,2.75
2023-01-08T03:49:30.550Z,2.67
2023-01-08T03:51:57.784Z,3.55
2023-01-08T03:54:26.430Z,2.65
2023-01-08T03:56:53.552Z,3.15
2023-01-08T03:59:20.709Z,2.60
2023-01-08T04:01:48.018Z,2.85
2023-01-08T04:04:15.297Z,2.63
2023-01-08T04:06:42.444Z,3.13
2023-01-08T04:09:09.778Z,2.78
2023-01-08T04:11:37.090Z,2.90
2023-01-08T04:14:04.262Z,2.67
2023-01-08T04:16:31.692Z,2.63
2023-01-08T04:18:58.760Z,2.83
2023-01-08T04:21:25.873Z,3.00
2023-01-08T04:23:52.924Z,2.97
2023-01-08T04:26:20.051Z,3.35
2023-01-08T04:28:47.179Z,2.65
2023-01-08T04:31:14.389Z,3.10
2023-01-08T04:33:41.583Z,3.42
2023-01-08T04:36:08.972Z,2.92
2023-01-08T04:38:36.141Z,2.80
2023-01-08T04:41:03.850Z,3.10
2023-01-08T04:43:31.836Z,3.20
2023-01-08T04:46:03.293Z,3.05
2023-01-08T04:48:31.284Z,2.72
2023-01-08T04:51:00.049Z,3.60
2023-01-08T04:53:27.652Z,2.97
2023-01-08T04:55:54.803Z,3.25
2023-01-08T04:58:21.959Z,2.97
2023-01-08T05:00:49.186Z,2.28
2023-01-08T05:03:16.468Z,2.58
2023-01-08T05:05:43.661Z,1.65
2023-01-08T05:08:10.808Z,2.03
2023-01-08T05:10:37.986Z,2.28
2023-01-08T05:13:05.391Z,2.10
2023-01-08T05:15:33.162Z,1.77
2023-01-08T05:18:00.916Z,2.00
2023-01-08T05:20:28.301Z,1.75
2023-01-08T05:22:56.319Z,2.20
2023-01-08T05:25:23.411Z,1.60
2023-01-08T05:27:50.760Z,1.77
2023-01-08T05:30:17.841Z,1.67
2023-01-08T05:32:44.984Z,1.70
2023-01-08T05:35:12.210Z,1.70
2023-01-08T05:37:39.381Z,1.52
2023-01-08T05:40:07.444Z,1.23
2023-01-08T05:42:35.601Z,1.52
2023-01-08T05:45:06.473Z,1.40
2023-01-08T05:47:33.855Z,1.20
2023-01-08T05:50:01.150Z,1.38
2023-01-08T05:52:28.510Z,1.80
2023-01-08T05:54:55.794Z,1.52
2023-01-08T05:57:23.028Z,1.63
2023-01-08T05:59:50.088Z,1.92
2023-01-08T06:02:17.199Z,1.33
2023-01-08T06:04:44.729Z,1.42
2023-01-08T06:07:11.776Z,1.30
2023-01-08T06:09:38.949Z,1.63
2023-01-08T06:12:06.155Z,1.40
2023-01-08T06:14:33.318Z,1.40
2023-01-08T06:17:00.471Z,2.47
2023-01-08T06:19:27.679Z,2.03
2023-01-08T06:21:54.826Z,1.38
2023-01-08T06:24:22.034Z,1.42
2023-01-08T06:26:49.188Z,1.42
2023-01-08T06:29:16.325Z,1.38
2023-01-08T06:31:43.520Z,1.60
2023-01-08T06:34:11.782Z,1.80
2023-01-08T06:36:38.895Z,1.33
2023-01-08T06:39:06.928Z,1.30
2023-01-08T06:41:34.231Z,1.42
2023-01-08T06:44:01.770Z,1.90
2023-01-08T06:46:29.070Z,1.42
2023-01-08T06:48:56.191Z,1.58
2023-01-08T06:51:23.508Z,1.30
2023-01-08T06:53:50.752Z,1.20
2023-01-08T06:56:17.845Z,1.23
2023-01-08T06:58:45.005Z,1.23
2023-01-08T07:01:16.259Z,1.25
2023-01-08T07:03:43.911Z,1.30
2023-01-08T07:06:18.670Z,1.30
2023-01-08T07:08:46.676Z,1.33
2023-01-08T07:11:14.216Z,1.50
2023-01-08T07:13:41.381Z,1.83
2023-01-08T07:16:09.384Z,1.58
2023-01-08T07:18:36.583Z,1.70
2023-01-08T07:21:04.126Z,1.40
2023-01-08T07:23:31.448Z,1.55
2023-01-08T07:26:02.247Z,2.65
2023-01-08T07:28:30.003Z,1.70
2023-01-08T07:30:57.147Z,1.83
2023-01-08T07:33:24.317Z,1.20
2023-01-08T07:35:54.923Z,1.38
2023-01-08T07:38:22.300Z,1.67
2023-01-08T07:40:49.550Z,1.80
2023-01-08T07:43:16.678Z,1.17
2023-01-08T07:45:43.983Z,1.40
2023-01-08T07:48:15.617Z,1.63
2023-01-08T07:50:43.907Z,1.58
2023-01-08T07:53:12.141Z,1.10
2023-01-08T07:55:39.587Z,1.27
2023-01-08T07:58:11.085Z,1.58
2023-01-08T08:00:38.551Z,1.50
2023-01-08T08:03:06.628Z,1.17
2023-01-08T08:05:34.239Z,1.30
2023-01-08T08:08:01.593Z,1.80
2023-01-08T08:10:28.851Z,1.30
2023-01-08T08:12:56.229Z,1.63
2023-01-08T08:15:23.410Z,1.10
2023-01-08T08:17:50.685Z,1.20
2023-01-08T08:20:17.791Z,1.20
2023-01-08T08:22:45.232Z,1.25
2023-01-08T08:25:15.143Z,1.10
2023-01-08T08:27:42.819Z,1.42
2023-01-08T08:30:10.897Z,1.98
2023-01-08T08:32:39.132Z,1.45
2023-01-08T08:35:06.537Z,1.58
2023-01-08T08:37:33.946Z,1.10
2023-01-08T08:40:01.044Z,1.20
2023-01-08T08:42:28.582Z,1.38
2023-01-08T08:44:55.796Z,2.20
2023-01-08T08:47:23.156Z,1.40
2023-01-08T08:49:50.600Z,1.40
2023-01-08T08:52:17.942Z,1.05
2023-01-08T08:54:47.197Z,1.40
2023-01-08T08:57:15.481Z,1.30
2023-01-08T08:59:43.255Z,1.50
2023-01-08T09:02:11.025Z,1.55
2023-01-08T09:04:38.363Z,1.70
2023-01-08T09:07:05.761Z,2.05
2023-01-08T09:09:32.929Z,1.60
2023-01-08T09:12:00.329Z,1.40
2023-01-08T09:14:27.523Z,1.13
2023-01-08T09:16:54.912Z,1.33
2023-01-08T09:19:22.759Z,1.27
2023-01-08T09:21:50.896Z,1.38
2023-01-08T09:24:18.110Z,1.40
2023-01-08T09:26:45.243Z,1.63
2023-01-08T09:29:12.444Z,1.50
2023-01-08T09:31:39.675Z,1.23
2023-01-08T09:34:07.045Z,1.70
2023-01-08T09:36:34.231Z,1.30
2023-01-08T09:39:01.616Z,1.67
2023-01-08T09:41:31.196Z,2.45
2023-01-08T09:43:59.204Z,1.40
2023-01-08T09:46:27.736Z,1.38
2023-01-08T09:48:59.800Z,1.55
2023-01-08T09:51:30.320Z,1.90
2023-01-08T09:53:58.127Z,1.55
2023-01-08T09:56:25.188Z,1.50
2023-01-08T09:58:53.651Z,1.75
2023-01-08T10:01:22.434Z,2.30
2023-01-08T10:03:51.556Z,1.70
2023-01-08T10:06:28.030Z,1.80
2023-01-08T10:08:55.147Z,1.77
2023-01-08T10:11:22.920Z,1.77
2023-01-08T10:13:53.249Z,2.00
2023-01-08T10:16:28.893Z,1.90
2023-01-08T10:18:56.093Z,1.60
2023-01-08T10:21:25.721Z,1.80
2023-01-08T10:23:53.573Z,1.77
2023-01-08T10:26:27.886Z,2.00
2023-01-08T10:29:07.328Z,1.88
2023-01-08T10:31:34.981Z,2.55
2023-01-08T10:34:08.969Z,1.80
2023-01-08T10:36:39.945Z,2.13
2023-01-08T10:39:07.130Z,2.00
2023-01-08T10:41:40.295Z,2.10
2023-01-08T10:44:08.156Z,1.80
2023-01-08T10:46:49.940Z,2.30
2023-01-08T10:49:25.569Z,1.80
2023-01-08T10:51:54.062Z,1.50
2023-01-08T10:54:27.896Z,1.60
2023-01-08T10:56:55.180Z,1.63
2023-01-08T10:59:23.211Z,1.75
2023-01-08T11:01:51.522Z,2.00
2023-01-08T11:04:29.049Z,1.80
2023-01-08T11:06:59.898Z,1.95
2023-01-08T11:09:31.911Z,2.17
2023-01-08T11:11:59.611Z,2.60
2023-01-08T11:14:35.109Z,1.60
2023-01-08T11:17:09.683Z,1.90
2023-01-08T11:19:36.891Z,2.00
2023-01-08T11:22:18.010Z,2.03
2023-01-08T11:24:45.638Z,1.73
2023-01-08T11:27:31.303Z,1.90
2023-01-08T11:30:12.413Z,2.25
2023-01-08T11:32:48.480Z,1.80
2023-01-08T11:35:29.808Z,2.05
2023-01-08T11:37:59.461Z,1.67
2023-01-08T11:40:38.408Z,1.75
2023-01-08T11:43:11.755Z,2.05
2023-01-08T11:45:46.279Z,2.38
2023-01-08T11:48:31.070Z,1.77
2023-01-08T11:51:04.318Z,1.98
2023-01-08T11:53:37.007Z,3.13
2023-01-08T11:58:36.156Z,2.00
2023-01-08T12:01:16.617Z,2.28
2023-01-08T12:03:46.844Z,1.92
2023-01-08T12:06:20.403Z,1.90
2023-01-08T12:09:06.304Z,1.98
2023-01-08T12:11:37.664Z,2.15
2023-01-08T12:14:04.743Z,1.73
2023-01-08T12:16:40.698Z,2.10
2023-01-08T12:19:22.800Z,1.98
2023-01-08T12:22:11.199Z,1.92
2023-01-08T12:24:53.683Z,2.40
2023-01-08T12:28:00.644Z,1.55
2023-01-08T12:30:30.864Z,2.55
2023-01-08T12:33:06.131Z,1.95
2023-01-08T12:35:40.106Z,1.95
2023-01-08T12:38:07.229Z,2.10
2023-01-08T12:40:36.409Z,1.65
2023-01-08T12:43:14.683Z,1.88
2023-01-08T12:45:45.231Z,2.45
2023-01-08T12:48:15.560Z,2.05
2023-01-08T12:50:45.739Z,1.52
2023-01-08T12:53:22.737Z,1.58
2023-01-08T12:55:56.412Z,2.05
2023-01-08T12:58:31.261Z,1.75
2023-01-08T13:01:14.473Z,1.20
2023-01-08T13:03:41.926Z,1.88
2023-01-08T13:06:12.553Z,2.00
2023-01-08T13:08:41.203Z,1.90
2023-01-08T13:11:09.275Z,1.80
2023-01-08T13:13:44.071Z,1.95
2023-01-08T13:16:14.613Z,1.80
2023-01-08T13:18:42.651Z,1.92
2023-01-08T13:21:11.573Z,1.60
2023-01-08T13:23:38.874Z,1.45
2023-01-08T13:26:07.400Z,1.10
2023-01-08T13:28:37.682Z,1.33
2023-01-08T13:31:10.678Z,1.50
2023-01-08T13:33:39.814Z,1.63
2023-01-08T13:36:21.074Z,1.30
2023-01-08T13:39:00.481Z,2.20
2023-01-08T13:41:32.244Z,1.20
2023-01-08T13:44:07.023Z,1.10
2023-01-08T13:46:37.147Z,1.30
2023-01-08T13:49:08.464Z,1.40
2023-01-08T13:51:38.696Z,1.27
2023-01-08T13:54:14.970Z,0.90
2023-01-08T13:56:43.065Z,0.88
2023-01-08T13:59:49.155Z,1.10
2023-01-08T14:02:22.923Z,1.20
2023-01-08T14:04:50.803Z,1.00
2023-01-08T14:07:17.909Z,1.30
2023-01-08T14:09:45.080Z,0.93
2023-01-08T14:12:14.408Z,1.17
2023-01-08T14:14:44.388Z,1.30
2023-01-08T14:17:18.126Z,1.23
2023-01-08T14:19:45.702Z,1.05
2023-01-08T14:22:26.015Z,1.00
2023-01-08T14:24:57.304Z,1.10
2023-01-08T14:27:28.152Z,1.08
2023-01-08T14:29:55.713Z,1.27
2023-01-08T14:32:24.148Z,1.52
2023-01-08T14:34:52.197Z,1.30
2023-01-08T14:37:19.531Z,1.23
2023-01-08T14:39:49.021Z,1.33
2023-01-08T14:42:39.295Z,1.40
2023-01-08T14:45:15.927Z,1.50
2023-01-08T14:47:48.622Z,1.75
2023-01-08T14:50:26.397Z,0.90
2023-01-08T14:52:54.970Z,1.30
2023-01-08T14:55:22.735Z,1.52
2023-01-08T14:57:52.351Z,1.17
2023-01-08T15:00:21.787Z,1.40
2023-01-08T15:02:49.747Z,1.17
2023-01-08T15:05:16.993Z,1.05
2023-01-08T15:07:45.080Z,1.50
2023-01-08T15:10:32.357Z,1.50
2023-01-08T15:13:00.969Z,1.23
2023-01-08T15:15:28.233Z,1.10
2023-01-08T15:17:55.456Z,1.27
2023-01-08T15:20:23.635Z,1.30
2023-01-08T15:22:50.772Z,1.33
2023-01-08T15:25:23.384Z,1.20
2023-01-08T15:30:29.131Z,1.98
2023-01-08T15:33:06.271Z,1.15
2023-01-08T15:35:34.023Z,1.20
2023-01-08T15:38:01.357Z,1.30
2023-01-08T15:40:28.458Z,2.00
2023-01-08T15:43:10.993Z,1.30
2023-01-08T15:45:46.433Z,1.20
2023-01-08T15:48:13.646Z,1.60
2023-01-08T15:50:41.560Z,1.83
2023-01-08T15:53:13.195Z,1.25
2023-01-08T15:55:43.436Z,1.40
2023-01-08T15:58:11.828Z,1.42
2023-01-08T16:00:39.538Z,1.50
2023-01-08T16:03:07.465Z,1.40
2023-01-08T16:05:34.995Z,1.33
2023-01-08T16:08:02.158Z,1.40
2023-01-08T16:10:29.383Z,1.10
2023-01-08T16:12:56.927Z,1.80
2023-01-08T16:15:24.237Z,1.83
2023-01-08T16:17:53.955Z,1.33
2023-01-08T16:20:21.129Z,1.75
2023-01-08T16:22:48.369Z,1.30
2023-01-08T16:25:15.786Z,1.67
2023-01-08T16:27:43.647Z,1.30
2023-01-08T16:30:14.579Z,1.60
2023-01-08T16:32:41.969Z,1.13
2023-01-08T16:35:09.407Z,1.42
2023-01-08T16:37:36.536Z,1.75
2023-01-08T16:40:03.821Z,1.60
2023-01-08T16:42:31.006Z,1.63
2023-01-08T16:44:58.161Z,1.70
2023-01-08T16:47:25.346Z,1.23
2023-01-08T16:49:52.510Z,1.60
2023-01-08T16:52:19.789Z,1.40
2023-01-08T16:54:47.959Z,1.83
2023-01-08T16:57:15.311Z,1.63
2023-01-08T16:59:42.422Z,1.50
2023-01-08T17:02:10.099Z,1.20
2023-01-08T17:04:37.366Z,1.70
2023-01-08T17:07:04.700Z,1.75
2023-01-08T17:09:31.835Z,1.30
2023-01-08T17:11:58.989Z,1.48
2023-01-08T17:14:26.357Z,1.63
2023-01-08T17:16:53.953Z,1.27
2023-01-08T17:19:23.869Z,1.60
2023-01-08T17:21:51.549Z,1.60
2023-01-08T17:24:18.744Z,1.70
2023-01-08T17:26:46.006Z,1.50
2023-01-08T17:29:13.138Z,1.88
2023-01-08T17:31:40.583Z,1.65
2023-01-08T17:34:08.470Z,2.28
2023-01-08T17:36:36.156Z,1.42
2023-01-08T17:39:03.626Z,1.50
2023-01-08T17:41:49.507Z,1.05
2023-01-08T17:44:16.911Z,1.40
2023-01-08T17:46:47.368Z,1.92
2023-01-08T17:49:15.503Z,1.60
2023-01-08T17:51:43.514Z,1.40
2023-01-08T17:54:11.264Z,1.40
2023-01-08T17:56:38.625Z,1.50
2023-01-08T17:59:06.327Z,1.67
2023-01-08T18:01:35.003Z,1.88
2023-01-08T18:04:02.373Z,1.48
2023-01-08T18:06:29.495Z,1.80
2023-01-08T18:08:56.722Z,1.50
2023-01-08T18:11:25.182Z,1.45
2023-01-08T18:13:58.845Z,1.90
2023-01-08T18:16:26.091Z,2.05
2023-01-08T18:18:56.268Z,1.80
2023-01-08T18:21:23.514Z,1.58
2023-01-08T18:23:50.630Z,1.50
2023-01-08T18:26:18.708Z,1.63
2023-01-08T18:28:47.033Z,1.50
2023-01-08T18:31:15.305Z,1.55
2023-01-08T18:33:42.533Z,1.85
2023-01-08T18:36:11.196Z,1.60
2023-01-08T18:38:39.036Z,1.70
2023-01-08T18:41:06.297Z,1.52
2023-01-08T18:43:35.426Z,1.65
2023-01-08T18:46:04.356Z,1.73
2023-01-08T18:48:31.863Z,2.40
2023-01-08T18:51:05.204Z,1.70
2023-01-08T18:53:33.164Z,1.55
2023-01-08T18:56:00.681Z,1.98
2023-01-08T18:58:28.432Z,1.60
2023-01-08T19:00:55.638Z,1.80
2023-01-08T19:03:22.807Z,2.22
2023-01-08T19:05:49.999Z,1.98
2023-01-08T19:08:17.227Z,1.75
2023-01-08T19:10:44.356Z,2.33
2023-01-08T19:13:11.527Z,1.60
2023-01-08T19:15:38.676Z,2.00
2023-01-08T19:18:08.800Z,1.77
2023-01-08T19:20:36.073Z,1.80
2023-01-08T19:23:03.306Z,1.58
2023-01-08T19:25:30.624Z,1.65
2023-01-08T19:28:00.175Z,1.80
2023-01-08T19:30:28.769Z,1.83
2023-01-08T19:32:56.004Z,1.92
2023-01-08T19:35:23.305Z,2.00
2023-01-08T19:37:50.374Z,1.77
2023-01-08T19:40:17.713Z,1.80
2023-01-08T19:43:03.760Z,1.85
2023-01-08T19:45:30.890Z,1.80
2023-01-08T19:47:58.030Z,1.20
2023-01-08T19:50:25.133Z,1.80
2023-01-08T19:52:52.981Z,1.67
2023-01-08T19:55:22.134Z,1.73
2023-01-08T19:57:50.008Z,1.38
2023-01-08T20:00:18.070Z,1.60
2023-01-08T20:02:45.239Z,2.10
2023-01-08T20:05:12.383Z,1.58
2023-01-08T20:07:39.469Z,1.50
2023-01-08T20:10:07.181Z,1.52
2023-01-08T20:12:34.646Z,1.35
2023-01-08T20:15:01.909Z,1.50
2023-01-08T20:17:29.052Z,1.70
2023-01-08T20:19:56.147Z,1.50
2023-01-08T20:22:23.450Z,2.35
2023-01-08T20:24:51.243Z,1.50
2023-01-08T20:27:18.470Z,1.70
2023-01-08T20:29:45.664Z,1.95
2023-01-08T20:32:12.867Z,1.60
2023-01-08T20:34:40.535Z,1.52
2023-01-08T20:37:07.701Z,1.75
2023-01-08T20:39:34.799Z,1.48
2023-01-08T20:42:04.488Z,1.80
2023-01-08T20:44:32.614Z,1.70
2023-01-08T20:47:00.362Z,1.85
2023-01-08T20:49:27.611Z,1.95
2023-01-08T20:51:59.126Z,1.70
2023-01-08T20:54:26.965Z,1.90
2023-01-08T20:56:55.666Z,1.73
2023-01-08T20:59:23.971Z,2.20
2023-01-08T21:01:51.314Z,1.85
2023-01-08T21:04:18.986Z,1.88
2023-01-08T21:06:46.233Z,2.08
2023-01-08T21:09:16.039Z,2.20
2023-01-08T21:11:43.339Z,2.85
2023-01-08T21:14:11.178Z,2.28
2023-01-08T21:16:40.199Z,2.13
2023-01-08T21:19:09.993Z,1.95
2023-01-08T21:21:39.952Z,2.08
2023-01-08T21:24:08.897Z,2.03
2023-01-08T21:26:37.039Z,2.28
2023-01-08T21:29:06.196Z,2.92
2023-01-08T21:31:34.024Z,2.17
2023-01-08T21:34:02.119Z,1.95
2023-01-08T21:36:31.350Z,1.75
2023-01-08T21:38:58.837Z,2.20
2023-01-08T21:41:45.699Z,1.70
2023-01-08T21:44:35.370Z,2.17
2023-01-08T21:47:03.308Z,2.00
2023-01-08T21:49:31.660Z,1.92
2023-01-08T21:52:17.508Z,2.15
2023-01-08T21:54:44.730Z,2.50
2023-01-08T21:57:11.905Z,2.47
2023-01-08T21:59:39.027Z,2.00
2023-01-08T22:02:06.561Z,2.42
2023-01-08T22:04:34.060Z,1.90
2023-01-08T22:07:01.250Z,2.13
2023-01-08T22:09:28.401Z,2.28
2023-01-08T22:11:56.093Z,2.53
2023-01-08T22:14:23.599Z,2.33
2023-01-08T22:16:50.808Z,1.85
2023-01-08T22:19:18.041Z,2.10
2023-01-08T22:21:45.525Z,2.47
2023-01-08T22:24:12.720Z,2.25
2023-01-08T22:26:39.820Z,2.33
2023-01-08T22:29:07.077Z,1.98
2023-01-08T22:31:34.648Z,2.13
2023-01-08T22:34:01.945Z,2.08
2023-01-08T22:36:29.145Z,3.10
2023-01-08T22:38:56.737Z,2.45
2023-01-08T22:41:24.956Z,2.10
2023-01-08T22:43:56.610Z,2.25
2023-01-08T22:46:23.958Z,2.20
2023-01-08T22:48:51.033Z,1.83
2023-01-08T22:51:20.643Z,1.95
2023-01-08T22:53:47.730Z,2.00
2023-01-08T22:56:14.888Z,2.00
2023-01-08T22:58:45.268Z,2.08
2023-01-08T23:01:16.099Z,1.92
2023-01-08T23:03:44.504Z,1.90
2023-01-08T23:06:15.611Z,2.50
2023-01-08T23:08:43.736Z,2.10
2023-01-08T23:11:12.709Z,1.88
2023-01-08T23:13:39.822Z,2.20
2023-01-08T23:16:07.896Z,2.47
2023-01-08T23:18:36.039Z,2.25
2023-01-08T23:21:13.863Z,2.70
2023-01-08T23:23:41.030Z,2.08
2023-01-08T23:26:09.712Z,2.15
2023-01-08T23:28:37.031Z,2.20
2023-01-08T23:31:08.506Z,1.77
2023-01-08T23:33:36.044Z,2.13
2023-01-08T23:36:03.423Z,1.85
2023-01-08T23:38:30.517Z,2.13
2023-01-08T23:40:58.140Z,2.15
2023-01-08T23:43:25.446Z,2.35
2023-01-08T23:45:53.017Z,1.88
2023-01-08T23:48:20.277Z,1.58
2023-01-08T23:50:47.405Z,2.08
2023-01-08T23:53:14.548Z,2.28
2023-01-08T23:55:42.244Z,1.70
2023-01-08T23:58:09.738Z,1.88
